sensor_id;sensor_type;location;lat;lon;timestamp;temperature;humidity
9980;DHT22;5030;51.532;6.766;2022-07-29T00:02:04;18.20;80.50
9980;DHT22;5030;51.532;6.766;2022-07-29T00:04:29;18.20;81.50
9980;DHT22;5030;51.532;6.766;2022-07-29T00:06:55;18.20;82.20
9980;DHT22;5030;51.532;6.766;2022-07-29T00:09:21;18.20;80.50
9980;DHT22;5030;51.532;6.766;2022-07-29T00:11:47;18.30;82.50
9980;DHT22;5030;51.532;6.766;2022-07-29T00:14:13;18.30;79.70
9980;DHT22;5030;51.532;6.766;2022-07-29T00:16:38;18.30;80.80
9980;DHT22;5030;51.532;6.766;2022-07-29T00:19:04;18.40;79.60
9980;DHT22;5030;51.532;6.766;2022-07-29T00:21:30;18.30;79.90
9980;DHT22;5030;51.532;6.766;2022-07-29T00:23:56;18.30;80.10
9980;DHT22;5030;51.532;6.766;2022-07-29T00:26:22;18.20;80.80
9980;DHT22;5030;51.532;6.766;2022-07-29T00:28:47;18.10;83.00
9980;DHT22;5030;51.532;6.766;2022-07-29T00:31:13;18.10;81.70
9980;DHT22;5030;51.532;6.766;2022-07-29T00:33:38;18.10;82.10
9980;DHT22;5030;51.532;6.766;2022-07-29T00:36:04;18.10;81.30
9980;DHT22;5030;51.532;6.766;2022-07-29T00:38:30;18.10;80.70
9980;DHT22;5030;51.532;6.766;2022-07-29T00:40:56;18.10;81.00
9980;DHT22;5030;51.532;6.766;2022-07-29T00:43:21;18.00;82.10
9980;DHT22;5030;51.532;6.766;2022-07-29T00:45:47;18.00;81.40
9980;DHT22;5030;51.532;6.766;2022-07-29T00:48:13;18.00;84.60
9980;DHT22;5030;51.532;6.766;2022-07-29T00:50:38;18.00;82.70
9980;DHT22;5030;51.532;6.766;2022-07-29T00:53:06;18.00;84.30
9980;DHT22;5030;51.532;6.766;2022-07-29T00:55:32;18.00;84.60
9980;DHT22;5030;51.532;6.766;2022-07-29T00:57:58;18.00;83.70
9980;DHT22;5030;51.532;6.766;2022-07-29T01:00:27;18.00;83.40
9980;DHT22;5030;51.532;6.766;2022-07-29T01:02:53;17.90;82.10
9980;DHT22;5030;51.532;6.766;2022-07-29T01:05:21;17.90;82.70
9980;DHT22;5030;51.532;6.766;2022-07-29T01:07:51;17.90;83.20
9980;DHT22;5030;51.532;6.766;2022-07-29T01:10:18;17.80;84.20
9980;DHT22;5030;51.532;6.766;2022-07-29T01:12:47;17.90;85.80
9980;DHT22;5030;51.532;6.766;2022-07-29T01:15:13;17.90;84.80
9980;DHT22;5030;51.532;6.766;2022-07-29T01:21:15;17.80;91.70
9980;DHT22;5030;51.532;6.766;2022-07-29T01:31:31;17.60;90.20
9980;DHT22;5030;51.532;6.766;2022-07-29T01:34:02;17.60;90.30
9980;DHT22;5030;51.532;6.766;2022-07-29T01:36:40;17.60;90.40
9980;DHT22;5030;51.532;6.766;2022-07-29T01:39:16;17.60;90.60
9980;DHT22;5030;51.532;6.766;2022-07-29T01:42:14;17.50;90.50
9980;DHT22;5030;51.532;6.766;2022-07-29T01:44:50;17.50;92.50
9980;DHT22;5030;51.532;6.766;2022-07-29T01:47:22;17.40;93.60
9980;DHT22;5030;51.532;6.766;2022-07-29T01:49:51;17.30;92.60
9980;DHT22;5030;51.532;6.766;2022-07-29T01:52:42;17.30;94.60
9980;DHT22;5030;51.532;6.766;2022-07-29T01:55:13;17.30;93.80
9980;DHT22;5030;51.532;6.766;2022-07-29T01:57:43;17.30;93.20
9980;DHT22;5030;51.532;6.766;2022-07-29T02:00:10;17.30;94.30
9980;DHT22;5030;51.532;6.766;2022-07-29T02:02:37;17.30;94.60
9980;DHT22;5030;51.532;6.766;2022-07-29T02:05:06;17.20;94.50
9980;DHT22;5030;51.532;6.766;2022-07-29T02:07:34;17.20;95.30
9980;DHT22;5030;51.532;6.766;2022-07-29T02:10:03;17.20;96.20
9980;DHT22;5030;51.532;6.766;2022-07-29T02:12:31;17.20;97.60
9980;DHT22;5030;51.532;6.766;2022-07-29T02:15:00;17.10;98.00
9980;DHT22;5030;51.532;6.766;2022-07-29T02:17:32;17.10;98.60
9980;DHT22;5030;51.532;6.766;2022-07-29T02:20:00;17.00;99.90
9980;DHT22;5030;51.532;6.766;2022-07-29T02:22:30;17.00;99.90
9980;DHT22;5030;51.532;6.766;2022-07-29T02:24:57;16.90;99.90
9980;DHT22;5030;51.532;6.766;2022-07-29T02:27:25;16.90;99.90
9980;DHT22;5030;51.532;6.766;2022-07-29T02:29:53;17.00;99.90
9980;DHT22;5030;51.532;6.766;2022-07-29T02:32:21;16.90;99.90
9980;DHT22;5030;51.532;6.766;2022-07-29T02:34:49;17.00;99.90
9980;DHT22;5030;51.532;6.766;2022-07-29T02:37:16;17.00;99.90
9980;DHT22;5030;51.532;6.766;2022-07-29T02:39:43;17.10;99.90
9980;DHT22;5030;51.532;6.766;2022-07-29T02:42:12;17.30;99.90
9980;DHT22;5030;51.532;6.766;2022-07-29T02:44:39;17.40;97.80
9980;DHT22;5030;51.532;6.766;2022-07-29T02:47:18;17.40;97.10
9980;DHT22;5030;51.532;6.766;2022-07-29T02:49:55;17.50;96.70
9980;DHT22;5030;51.532;6.766;2022-07-29T02:52:35;17.40;97.10
9980;DHT22;5030;51.532;6.766;2022-07-29T02:55:09;17.40;97.40
9980;DHT22;5030;51.532;6.766;2022-07-29T02:57:59;17.40;96.90
9980;DHT22;5030;51.532;6.766;2022-07-29T03:00:29;17.50;98.20
9980;DHT22;5030;51.532;6.766;2022-07-29T03:02:58;17.60;97.50
9980;DHT22;5030;51.532;6.766;2022-07-29T03:05:24;17.60;98.40
9980;DHT22;5030;51.532;6.766;2022-07-29T03:07:57;17.50;99.90
9980;DHT22;5030;51.532;6.766;2022-07-29T03:10:25;17.50;99.90
9980;DHT22;5030;51.532;6.766;2022-07-29T03:12:51;17.50;99.90
9980;DHT22;5030;51.532;6.766;2022-07-29T03:15:18;17.40;99.90
9980;DHT22;5030;51.532;6.766;2022-07-29T03:17:44;17.40;99.90
9980;DHT22;5030;51.532;6.766;2022-07-29T03:20:11;17.30;99.90
9980;DHT22;5030;51.532;6.766;2022-07-29T03:22:42;17.10;99.90
9980;DHT22;5030;51.532;6.766;2022-07-29T03:25:17;16.90;99.90
9980;DHT22;5030;51.532;6.766;2022-07-29T03:27:44;17.00;99.90
9980;DHT22;5030;51.532;6.766;2022-07-29T03:30:11;17.00;99.90
9980;DHT22;5030;51.532;6.766;2022-07-29T03:32:37;16.90;99.90
9980;DHT22;5030;51.532;6.766;2022-07-29T03:35:04;16.80;99.90
9980;DHT22;5030;51.532;6.766;2022-07-29T03:37:31;16.90;99.90
9980;DHT22;5030;51.532;6.766;2022-07-29T03:39:57;16.80;99.90
9980;DHT22;5030;51.532;6.766;2022-07-29T03:42:31;16.80;99.90
9980;DHT22;5030;51.532;6.766;2022-07-29T03:45:02;16.70;99.90
9980;DHT22;5030;51.532;6.766;2022-07-29T03:47:30;16.80;99.90
9980;DHT22;5030;51.532;6.766;2022-07-29T03:50:06;16.90;99.90
9980;DHT22;5030;51.532;6.766;2022-07-29T03:52:34;16.80;99.90
9980;DHT22;5030;51.532;6.766;2022-07-29T03:55:01;16.70;99.90
9980;DHT22;5030;51.532;6.766;2022-07-29T03:57:28;16.80;99.90
9980;DHT22;5030;51.532;6.766;2022-07-29T03:59:55;16.80;99.90
9980;DHT22;5030;51.532;6.766;2022-07-29T04:02:22;16.80;99.90
9980;DHT22;5030;51.532;6.766;2022-07-29T04:04:48;16.60;99.90
9980;DHT22;5030;51.532;6.766;2022-07-29T04:07:15;16.60;99.90
9980;DHT22;5030;51.532;6.766;2022-07-29T04:09:41;16.70;99.90
9980;DHT22;5030;51.532;6.766;2022-07-29T04:12:07;16.70;99.90
9980;DHT22;5030;51.532;6.766;2022-07-29T04:14:33;16.70;99.90
9980;DHT22;5030;51.532;6.766;2022-07-29T04:17:00;16.60;99.90
9980;DHT22;5030;51.532;6.766;2022-07-29T04:19:26;16.50;99.90
9980;DHT22;5030;51.532;6.766;2022-07-29T04:21:52;16.50;99.90
9980;DHT22;5030;51.532;6.766;2022-07-29T04:24:18;16.40;99.90
9980;DHT22;5030;51.532;6.766;2022-07-29T04:26:45;16.00;99.90
9980;DHT22;5030;51.532;6.766;2022-07-29T04:29:10;15.70;99.90
9980;DHT22;5030;51.532;6.766;2022-07-29T04:31:37;15.40;99.90
9980;DHT22;5030;51.532;6.766;2022-07-29T04:34:03;15.10;1.00
9980;DHT22;5030;51.532;6.766;2022-07-29T04:36:29;14.80;1.00
9980;DHT22;5030;51.532;6.766;2022-07-29T04:38:55;14.70;99.90
9980;DHT22;5030;51.532;6.766;2022-07-29T04:41:20;14.70;99.90
9980;DHT22;5030;51.532;6.766;2022-07-29T04:43:46;14.50;1.00
9980;DHT22;5030;51.532;6.766;2022-07-29T04:46:12;14.50;1.00
9980;DHT22;5030;51.532;6.766;2022-07-29T04:48:37;14.50;1.00
9980;DHT22;5030;51.532;6.766;2022-07-29T04:51:03;14.50;1.00
9980;DHT22;5030;51.532;6.766;2022-07-29T04:53:29;14.50;1.00
9980;DHT22;5030;51.532;6.766;2022-07-29T04:55:54;14.50;99.90
9980;DHT22;5030;51.532;6.766;2022-07-29T04:58:20;14.50;1.00
9980;DHT22;5030;51.532;6.766;2022-07-29T05:00:48;14.50;1.00
9980;DHT22;5030;51.532;6.766;2022-07-29T05:03:14;14.50;1.00
9980;DHT22;5030;51.532;6.766;2022-07-29T05:05:39;14.60;1.00
9980;DHT22;5030;51.532;6.766;2022-07-29T05:08:06;14.50;99.90
9980;DHT22;5030;51.532;6.766;2022-07-29T05:10:32;14.60;1.00
9980;DHT22;5030;51.532;6.766;2022-07-29T05:12:58;14.50;1.00
9980;DHT22;5030;51.532;6.766;2022-07-29T05:15:23;14.50;80.00
9980;DHT22;5030;51.532;6.766;2022-07-29T05:17:49;14.50;99.90
9980;DHT22;5030;51.532;6.766;2022-07-29T05:20:15;14.50;97.20
9980;DHT22;5030;51.532;6.766;2022-07-29T05:22:40;14.50;1.00
9980;DHT22;5030;51.532;6.766;2022-07-29T05:25:06;14.50;1.00
9980;DHT22;5030;51.532;6.766;2022-07-29T05:27:32;14.40;1.00
9980;DHT22;5030;51.532;6.766;2022-07-29T05:29:58;14.50;99.90
9980;DHT22;5030;51.532;6.766;2022-07-29T05:32:23;14.50;1.00
9980;DHT22;5030;51.532;6.766;2022-07-29T05:34:49;14.50;1.00
9980;DHT22;5030;51.532;6.766;2022-07-29T05:37:15;14.40;1.00
9980;DHT22;5030;51.532;6.766;2022-07-29T05:39:40;14.50;1.00
9980;DHT22;5030;51.532;6.766;2022-07-29T05:42:09;14.50;99.90
9980;DHT22;5030;51.532;6.766;2022-07-29T05:44:39;14.50;1.00
9980;DHT22;5030;51.532;6.766;2022-07-29T05:47:05;14.50;1.00
9980;DHT22;5030;51.532;6.766;2022-07-29T05:49:32;14.50;1.00
9980;DHT22;5030;51.532;6.766;2022-07-29T05:51:57;14.50;99.90
9980;DHT22;5030;51.532;6.766;2022-07-29T05:54:23;14.50;21.80
9980;DHT22;5030;51.532;6.766;2022-07-29T05:56:49;14.50;1.00
9980;DHT22;5030;51.532;6.766;2022-07-29T05:59:15;14.50;1.00
9980;DHT22;5030;51.532;6.766;2022-07-29T06:01:41;14.60;1.00
9980;DHT22;5030;51.532;6.766;2022-07-29T06:04:07;14.50;1.00
9980;DHT22;5030;51.532;6.766;2022-07-29T06:06:34;14.50;99.90
9980;DHT22;5030;51.532;6.766;2022-07-29T06:09:00;14.50;1.00
9980;DHT22;5030;51.532;6.766;2022-07-29T06:11:26;14.50;1.00
9980;DHT22;5030;51.532;6.766;2022-07-29T06:13:52;14.40;1.00
9980;DHT22;5030;51.532;6.766;2022-07-29T06:16:19;14.40;1.00
9980;DHT22;5030;51.532;6.766;2022-07-29T06:18:45;14.40;1.00
9980;DHT22;5030;51.532;6.766;2022-07-29T06:21:11;14.40;34.30
9980;DHT22;5030;51.532;6.766;2022-07-29T06:23:37;14.40;99.90
9980;DHT22;5030;51.532;6.766;2022-07-29T06:26:04;14.40;99.90
9980;DHT22;5030;51.532;6.766;2022-07-29T06:28:30;14.40;1.00
9980;DHT22;5030;51.532;6.766;2022-07-29T06:30:55;14.50;1.00
9980;DHT22;5030;51.532;6.766;2022-07-29T06:33:21;14.60;1.00
9980;DHT22;5030;51.532;6.766;2022-07-29T06:35:47;14.70;1.00
9980;DHT22;5030;51.532;6.766;2022-07-29T06:38:14;14.70;3.20
9980;DHT22;5030;51.532;6.766;2022-07-29T06:40:43;14.80;99.90
9980;DHT22;5030;51.532;6.766;2022-07-29T06:43:32;14.80;15.40
9980;DHT22;5030;51.532;6.766;2022-07-29T06:46:04;14.90;1.00
9980;DHT22;5030;51.532;6.766;2022-07-29T06:48:31;15.00;99.90
9980;DHT22;5030;51.532;6.766;2022-07-29T06:50:57;15.10;99.90
9980;DHT22;5030;51.532;6.766;2022-07-29T06:53:23;15.20;27.60
9980;DHT22;5030;51.532;6.766;2022-07-29T06:55:49;15.10;99.90
9980;DHT22;5030;51.532;6.766;2022-07-29T06:58:16;15.20;1.00
9980;DHT22;5030;51.532;6.766;2022-07-29T07:00:44;15.30;99.90
9980;DHT22;5030;51.532;6.766;2022-07-29T07:03:10;15.40;1.00
9980;DHT22;5030;51.532;6.766;2022-07-29T07:05:36;15.40;99.90
9980;DHT22;5030;51.532;6.766;2022-07-29T07:08:03;15.50;1.00
9980;DHT22;5030;51.532;6.766;2022-07-29T07:10:28;15.60;1.00
9980;DHT22;5030;51.532;6.766;2022-07-29T07:12:54;15.60;1.00
9980;DHT22;5030;51.532;6.766;2022-07-29T07:15:20;15.50;1.00
9980;DHT22;5030;51.532;6.766;2022-07-29T07:17:49;15.40;1.00
9980;DHT22;5030;51.532;6.766;2022-07-29T07:20:15;15.40;1.00
9980;DHT22;5030;51.532;6.766;2022-07-29T07:22:41;15.40;1.00
9980;DHT22;5030;51.532;6.766;2022-07-29T07:25:07;15.40;99.90
9980;DHT22;5030;51.532;6.766;2022-07-29T07:27:34;15.40;1.00
9980;DHT22;5030;51.532;6.766;2022-07-29T07:29:59;15.40;99.90
9980;DHT22;5030;51.532;6.766;2022-07-29T07:32:25;15.40;99.90
9980;DHT22;5030;51.532;6.766;2022-07-29T07:34:51;15.40;99.90
9980;DHT22;5030;51.532;6.766;2022-07-29T07:37:16;15.30;99.90
9980;DHT22;5030;51.532;6.766;2022-07-29T07:39:44;15.30;99.90
9980;DHT22;5030;51.532;6.766;2022-07-29T07:42:10;15.20;1.00
9980;DHT22;5030;51.532;6.766;2022-07-29T07:44:38;15.30;1.00
9980;DHT22;5030;51.532;6.766;2022-07-29T07:47:04;15.30;1.00
9980;DHT22;5030;51.532;6.766;2022-07-29T07:49:30;15.30;1.00
9980;DHT22;5030;51.532;6.766;2022-07-29T07:51:56;15.40;1.00
9980;DHT22;5030;51.532;6.766;2022-07-29T07:54:22;15.50;99.90
9980;DHT22;5030;51.532;6.766;2022-07-29T07:56:47;15.60;1.00
9980;DHT22;5030;51.532;6.766;2022-07-29T07:59:16;15.70;1.00
9980;DHT22;5030;51.532;6.766;2022-07-29T08:01:42;15.70;1.00
9980;DHT22;5030;51.532;6.766;2022-07-29T08:04:08;15.60;99.90
9980;DHT22;5030;51.532;6.766;2022-07-29T08:06:35;15.70;1.00
9980;DHT22;5030;51.532;6.766;2022-07-29T08:09:03;15.80;1.00
9980;DHT22;5030;51.532;6.766;2022-07-29T08:11:30;15.80;99.90
9980;DHT22;5030;51.532;6.766;2022-07-29T08:13:55;15.80;1.00
9980;DHT22;5030;51.532;6.766;2022-07-29T08:16:21;15.90;99.90
9980;DHT22;5030;51.532;6.766;2022-07-29T08:18:48;16.00;99.90
9980;DHT22;5030;51.532;6.766;2022-07-29T08:21:14;16.00;1.00
9980;DHT22;5030;51.532;6.766;2022-07-29T08:23:41;16.00;99.90
9980;DHT22;5030;51.532;6.766;2022-07-29T08:26:19;16.10;99.90
9980;DHT22;5030;51.532;6.766;2022-07-29T08:28:46;16.10;1.00
9980;DHT22;5030;51.532;6.766;2022-07-29T08:31:14;16.10;99.90
9980;DHT22;5030;51.532;6.766;2022-07-29T08:33:50;16.00;99.90
9980;DHT22;5030;51.532;6.766;2022-07-29T08:36:15;16.00;1.00
9980;DHT22;5030;51.532;6.766;2022-07-29T08:38:41;15.90;1.00
9980;DHT22;5030;51.532;6.766;2022-07-29T08:41:06;16.00;16.50
9980;DHT22;5030;51.532;6.766;2022-07-29T08:43:32;15.90;99.90
9980;DHT22;5030;51.532;6.766;2022-07-29T08:46:00;15.80;99.90
9980;DHT22;5030;51.532;6.766;2022-07-29T08:48:26;15.80;1.00
9980;DHT22;5030;51.532;6.766;2022-07-29T08:50:55;15.70;1.00
9980;DHT22;5030;51.532;6.766;2022-07-29T08:53:22;15.70;1.00
9980;DHT22;5030;51.532;6.766;2022-07-29T08:55:50;15.60;1.00
9980;DHT22;5030;51.532;6.766;2022-07-29T08:58:17;15.60;1.00
9980;DHT22;5030;51.532;6.766;2022-07-29T09:00:46;15.70;95.20
9980;DHT22;5030;51.532;6.766;2022-07-29T09:03:15;15.70;99.90
9980;DHT22;5030;51.532;6.766;2022-07-29T09:05:47;15.70;99.90
9980;DHT22;5030;51.532;6.766;2022-07-29T09:08:14;15.70;99.90
9980;DHT22;5030;51.532;6.766;2022-07-29T09:10:40;15.80;99.90
9980;DHT22;5030;51.532;6.766;2022-07-29T09:13:05;15.90;99.90
9980;DHT22;5030;51.532;6.766;2022-07-29T09:15:31;16.20;99.90
9980;DHT22;5030;51.532;6.766;2022-07-29T09:17:57;16.20;99.90
9980;DHT22;5030;51.532;6.766;2022-07-29T09:20:28;16.30;99.90
9980;DHT22;5030;51.532;6.766;2022-07-29T09:23:13;16.40;99.90
9980;DHT22;5030;51.532;6.766;2022-07-29T09:25:40;16.50;1.00
9980;DHT22;5030;51.532;6.766;2022-07-29T09:28:17;16.70;1.00
9980;DHT22;5030;51.532;6.766;2022-07-29T09:30:54;17.00;99.90
9980;DHT22;5030;51.532;6.766;2022-07-29T09:33:21;17.10;1.00
9980;DHT22;5030;51.532;6.766;2022-07-29T09:36:08;17.60;1.00
9980;DHT22;5030;51.532;6.766;2022-07-29T09:38:34;17.90;99.90
9980;DHT22;5030;51.532;6.766;2022-07-29T09:41:03;18.00;1.00
9980;DHT22;5030;51.532;6.766;2022-07-29T09:43:29;18.20;1.00
9980;DHT22;5030;51.532;6.766;2022-07-29T09:45:55;18.20;1.00
9980;DHT22;5030;51.532;6.766;2022-07-29T09:48:23;18.30;1.00
9980;DHT22;5030;51.532;6.766;2022-07-29T09:50:50;18.50;1.00
9980;DHT22;5030;51.532;6.766;2022-07-29T09:53:35;18.50;1.00
9980;DHT22;5030;51.532;6.766;2022-07-29T09:56:02;18.50;1.00
9980;DHT22;5030;51.532;6.766;2022-07-29T09:58:28;18.50;1.00
9980;DHT22;5030;51.532;6.766;2022-07-29T10:00:55;18.40;1.00
9980;DHT22;5030;51.532;6.766;2022-07-29T10:03:22;18.40;1.00
9980;DHT22;5030;51.532;6.766;2022-07-29T10:06:11;18.60;1.00
9980;DHT22;5030;51.532;6.766;2022-07-29T10:08:38;18.80;1.00
9980;DHT22;5030;51.532;6.766;2022-07-29T10:11:14;18.90;1.00
9980;DHT22;5030;51.532;6.766;2022-07-29T10:13:41;19.00;1.00
9980;DHT22;5030;51.532;6.766;2022-07-29T10:16:07;19.00;1.00
9980;DHT22;5030;51.532;6.766;2022-07-29T10:18:33;19.20;99.90
9980;DHT22;5030;51.532;6.766;2022-07-29T10:21:00;19.20;99.90
9980;DHT22;5030;51.532;6.766;2022-07-29T10:23:28;19.30;99.90
9980;DHT22;5030;51.532;6.766;2022-07-29T10:25:54;19.30;99.90
9980;DHT22;5030;51.532;6.766;2022-07-29T10:28:19;19.20;99.90
9980;DHT22;5030;51.532;6.766;2022-07-29T10:30:46;19.10;99.90
9980;DHT22;5030;51.532;6.766;2022-07-29T10:33:41;19.00;99.90
9980;DHT22;5030;51.532;6.766;2022-07-29T10:41:52;18.70;99.90
9980;DHT22;5030;51.532;6.766;2022-07-29T10:44:22;18.50;99.90
9980;DHT22;5030;51.532;6.766;2022-07-29T10:46:49;18.60;99.90
9980;DHT22;5030;51.532;6.766;2022-07-29T10:49:23;18.80;99.90
9980;DHT22;5030;51.532;6.766;2022-07-29T10:52:08;18.80;99.90
9980;DHT22;5030;51.532;6.766;2022-07-29T10:54:41;18.90;99.90
9980;DHT22;5030;51.532;6.766;2022-07-29T10:59:41;19.20;99.90
9980;DHT22;5030;51.532;6.766;2022-07-29T11:05:01;19.90;99.90
9980;DHT22;5030;51.532;6.766;2022-07-29T11:07:27;20.40;99.90
9980;DHT22;5030;51.532;6.766;2022-07-29T11:15:17;20.60;99.90
9980;DHT22;5030;51.532;6.766;2022-07-29T11:23:25;21.70;99.90
9980;DHT22;5030;51.532;6.766;2022-07-29T11:29:13;21.90;99.90
9980;DHT22;5030;51.532;6.766;2022-07-29T11:31:46;22.00;99.90
9980;DHT22;5030;51.532;6.766;2022-07-29T11:34:31;22.10;99.90
9980;DHT22;5030;51.532;6.766;2022-07-29T11:39:40;22.10;99.90
9980;DHT22;5030;51.532;6.766;2022-07-29T11:47:53;22.30;99.90
9980;DHT22;5030;51.532;6.766;2022-07-29T11:50:31;22.30;99.90
9980;DHT22;5030;51.532;6.766;2022-07-29T11:52:58;22.30;99.90
9980;DHT22;5030;51.532;6.766;2022-07-29T11:55:25;22.30;99.90
9980;DHT22;5030;51.532;6.766;2022-07-29T11:57:57;22.10;99.90
9980;DHT22;5030;51.532;6.766;2022-07-29T12:00:38;21.80;99.90
9980;DHT22;5030;51.532;6.766;2022-07-29T12:03:10;21.90;99.90
9980;DHT22;5030;51.532;6.766;2022-07-29T12:05:39;21.90;99.90
9980;DHT22;5030;51.532;6.766;2022-07-29T12:08:10;21.90;99.90
9980;DHT22;5030;51.532;6.766;2022-07-29T12:10:37;22.00;99.90
9980;DHT22;5030;51.532;6.766;2022-07-29T12:13:03;21.80;99.90
9980;DHT22;5030;51.532;6.766;2022-07-29T12:15:29;21.70;99.90
9980;DHT22;5030;51.532;6.766;2022-07-29T12:17:55;21.40;99.90
9980;DHT22;5030;51.532;6.766;2022-07-29T12:20:28;21.10;99.90
9980;DHT22;5030;51.532;6.766;2022-07-29T12:22:55;21.20;99.90
9980;DHT22;5030;51.532;6.766;2022-07-29T12:25:23;21.20;99.90
9980;DHT22;5030;51.532;6.766;2022-07-29T12:28:04;21.30;99.90
9980;DHT22;5030;51.532;6.766;2022-07-29T12:30:48;21.40;99.90
9980;DHT22;5030;51.532;6.766;2022-07-29T12:35:48;21.10;99.90
9980;DHT22;5030;51.532;6.766;2022-07-29T12:38:15;21.10;99.90
9980;DHT22;5030;51.532;6.766;2022-07-29T12:40:41;21.10;99.90
9980;DHT22;5030;51.532;6.766;2022-07-29T12:45:35;21.30;99.90
9980;DHT22;5030;51.532;6.766;2022-07-29T12:48:01;21.20;99.90
9980;DHT22;5030;51.532;6.766;2022-07-29T12:50:27;21.30;99.90
9980;DHT22;5030;51.532;6.766;2022-07-29T12:52:53;21.10;99.90
9980;DHT22;5030;51.532;6.766;2022-07-29T12:55:45;21.20;99.90
9980;DHT22;5030;51.532;6.766;2022-07-29T12:58:36;21.40;99.90
9980;DHT22;5030;51.532;6.766;2022-07-29T13:01:08;21.30;99.90
9980;DHT22;5030;51.532;6.766;2022-07-29T13:03:53;21.20;99.90
9980;DHT22;5030;51.532;6.766;2022-07-29T13:09:17;21.20;99.90
9980;DHT22;5030;51.532;6.766;2022-07-29T13:11:51;21.40;99.90
9980;DHT22;5030;51.532;6.766;2022-07-29T13:14:38;21.40;99.90
9980;DHT22;5030;51.532;6.766;2022-07-29T13:22:02;21.50;99.90
9980;DHT22;5030;51.532;6.766;2022-07-29T13:24:28;21.70;98.80
9980;DHT22;5030;51.532;6.766;2022-07-29T13:26:53;21.80;98.20
9980;DHT22;5030;51.532;6.766;2022-07-29T13:29:19;21.80;94.70
9980;DHT22;5030;51.532;6.766;2022-07-29T13:31:46;22.10;90.00
9980;DHT22;5030;51.532;6.766;2022-07-29T13:34:12;22.10;85.60
9980;DHT22;5030;51.532;6.766;2022-07-29T13:36:37;22.00;85.70
9980;DHT22;5030;51.532;6.766;2022-07-29T13:39:03;22.00;86.30
9980;DHT22;5030;51.532;6.766;2022-07-29T13:41:30;22.20;91.30
9980;DHT22;5030;51.532;6.766;2022-07-29T13:43:55;22.00;85.00
9980;DHT22;5030;51.532;6.766;2022-07-29T13:46:21;22.20;88.20
9980;DHT22;5030;51.532;6.766;2022-07-29T13:48:47;22.10;84.60
9980;DHT22;5030;51.532;6.766;2022-07-29T13:51:12;22.30;91.30
9980;DHT22;5030;51.532;6.766;2022-07-29T13:53:38;22.70;90.30
9980;DHT22;5030;51.532;6.766;2022-07-29T13:56:04;22.80;78.10
9980;DHT22;5030;51.532;6.766;2022-07-29T13:58:32;23.20;80.10
9980;DHT22;5030;51.532;6.766;2022-07-29T14:00:58;24.10;76.30
9980;DHT22;5030;51.532;6.766;2022-07-29T14:03:24;24.50;67.30
9980;DHT22;5030;51.532;6.766;2022-07-29T14:05:50;25.10;65.40
9980;DHT22;5030;51.532;6.766;2022-07-29T14:08:16;24.60;63.10
9980;DHT22;5030;51.532;6.766;2022-07-29T14:10:41;24.30;59.50
9980;DHT22;5030;51.532;6.766;2022-07-29T14:13:07;24.30;58.50
9980;DHT22;5030;51.532;6.766;2022-07-29T14:15:33;23.60;55.80
9980;DHT22;5030;51.532;6.766;2022-07-29T14:17:58;23.80;58.50
9980;DHT22;5030;51.532;6.766;2022-07-29T14:20:24;24.70;58.60
9980;DHT22;5030;51.532;6.766;2022-07-29T14:22:50;24.90;57.10
9980;DHT22;5030;51.532;6.766;2022-07-29T14:25:15;24.90;58.80
9980;DHT22;5030;51.532;6.766;2022-07-29T14:27:42;25.00;55.20
9980;DHT22;5030;51.532;6.766;2022-07-29T14:30:08;25.00;54.90
9980;DHT22;5030;51.532;6.766;2022-07-29T14:32:34;25.70;59.60
9980;DHT22;5030;51.532;6.766;2022-07-29T14:35:00;25.70;56.40
9980;DHT22;5030;51.532;6.766;2022-07-29T14:37:26;25.90;54.00
9980;DHT22;5030;51.532;6.766;2022-07-29T14:39:51;25.90;53.50
9980;DHT22;5030;51.532;6.766;2022-07-29T14:42:17;26.30;56.00
9980;DHT22;5030;51.532;6.766;2022-07-29T14:44:42;26.70;54.90
9980;DHT22;5030;51.532;6.766;2022-07-29T14:47:08;26.80;54.10
9980;DHT22;5030;51.532;6.766;2022-07-29T14:49:35;26.60;53.30
9980;DHT22;5030;51.532;6.766;2022-07-29T14:52:00;26.80;51.30
9980;DHT22;5030;51.532;6.766;2022-07-29T14:54:26;27.00;53.00
9980;DHT22;5030;51.532;6.766;2022-07-29T14:56:52;25.60;46.70
9980;DHT22;5030;51.532;6.766;2022-07-29T14:59:20;26.00;49.50
9980;DHT22;5030;51.532;6.766;2022-07-29T15:01:46;26.60;49.70
9980;DHT22;5030;51.532;6.766;2022-07-29T15:04:11;26.80;49.70
9980;DHT22;5030;51.532;6.766;2022-07-29T15:06:37;26.90;48.40
9980;DHT22;5030;51.532;6.766;2022-07-29T15:09:03;27.00;48.30
9980;DHT22;5030;51.532;6.766;2022-07-29T15:11:28;27.00;46.10
9980;DHT22;5030;51.532;6.766;2022-07-29T15:13:54;26.30;44.60
9980;DHT22;5030;51.532;6.766;2022-07-29T15:16:20;26.90;45.70
9980;DHT22;5030;51.532;6.766;2022-07-29T15:18:45;26.70;42.90
9980;DHT22;5030;51.532;6.766;2022-07-29T15:21:11;26.40;43.70
9980;DHT22;5030;51.532;6.766;2022-07-29T15:23:37;26.20;41.40
9980;DHT22;5030;51.532;6.766;2022-07-29T15:26:03;26.10;42.50
9980;DHT22;5030;51.532;6.766;2022-07-29T15:28:29;26.30;42.20
9980;DHT22;5030;51.532;6.766;2022-07-29T15:30:55;26.70;42.90
9980;DHT22;5030;51.532;6.766;2022-07-29T15:33:20;26.80;42.90
9980;DHT22;5030;51.532;6.766;2022-07-29T15:35:46;26.90;42.10
9980;DHT22;5030;51.532;6.766;2022-07-29T15:38:12;27.10;41.80
9980;DHT22;5030;51.532;6.766;2022-07-29T15:40:38;26.70;43.10
9980;DHT22;5030;51.532;6.766;2022-07-29T15:43:07;26.80;39.90
9980;DHT22;5030;51.532;6.766;2022-07-29T15:45:39;26.60;37.50
9980;DHT22;5030;51.532;6.766;2022-07-29T15:48:08;26.60;39.10
9980;DHT22;5030;51.532;6.766;2022-07-29T15:50:34;26.50;38.40
9980;DHT22;5030;51.532;6.766;2022-07-29T15:53:01;26.60;37.20
9980;DHT22;5030;51.532;6.766;2022-07-29T15:55:27;26.70;37.90
9980;DHT22;5030;51.532;6.766;2022-07-29T15:57:53;26.40;36.70
9980;DHT22;5030;51.532;6.766;2022-07-29T16:00:18;25.70;33.50
9980;DHT22;5030;51.532;6.766;2022-07-29T16:02:46;26.30;35.80
9980;DHT22;5030;51.532;6.766;2022-07-29T16:05:12;26.20;35.10
9980;DHT22;5030;51.532;6.766;2022-07-29T16:07:39;26.40;36.30
9980;DHT22;5030;51.532;6.766;2022-07-29T16:10:04;26.50;35.30
9980;DHT22;5030;51.532;6.766;2022-07-29T16:12:32;26.50;35.60
9980;DHT22;5030;51.532;6.766;2022-07-29T16:14:57;26.80;37.20
9980;DHT22;5030;51.532;6.766;2022-07-29T16:17:23;27.10;36.20
9980;DHT22;5030;51.532;6.766;2022-07-29T16:19:49;27.10;35.50
9980;DHT22;5030;51.532;6.766;2022-07-29T16:22:14;27.60;38.00
9980;DHT22;5030;51.532;6.766;2022-07-29T16:24:40;28.10;37.10
9980;DHT22;5030;51.532;6.766;2022-07-29T16:27:08;27.70;35.60
9980;DHT22;5030;51.532;6.766;2022-07-29T16:29:34;27.80;35.60
9980;DHT22;5030;51.532;6.766;2022-07-29T16:32:01;27.60;34.90
9980;DHT22;5030;51.532;6.766;2022-07-29T16:34:27;27.10;33.00
9980;DHT22;5030;51.532;6.766;2022-07-29T16:36:52;27.60;34.20
9980;DHT22;5030;51.532;6.766;2022-07-29T16:39:18;27.80;34.50
9980;DHT22;5030;51.532;6.766;2022-07-29T16:41:43;27.70;34.00
9980;DHT22;5030;51.532;6.766;2022-07-29T16:44:09;27.50;33.30
9980;DHT22;5030;51.532;6.766;2022-07-29T16:46:35;27.20;33.60
9980;DHT22;5030;51.532;6.766;2022-07-29T16:49:02;27.60;32.00
9980;DHT22;5030;51.532;6.766;2022-07-29T16:51:28;27.10;32.10
9980;DHT22;5030;51.532;6.766;2022-07-29T16:53:54;26.70;29.00
9980;DHT22;5030;51.532;6.766;2022-07-29T16:56:20;26.30;29.60
9980;DHT22;5030;51.532;6.766;2022-07-29T16:58:46;26.50;29.60
9980;DHT22;5030;51.532;6.766;2022-07-29T17:01:11;26.80;30.60
9980;DHT22;5030;51.532;6.766;2022-07-29T17:03:37;26.60;28.80
9980;DHT22;5030;51.532;6.766;2022-07-29T17:06:26;26.90;29.00
9980;DHT22;5030;51.532;6.766;2022-07-29T17:08:51;26.90;29.10